createdAt,value
2022-10-21T00:00:18.766Z,95.16
2022-10-21T00:03:05.705Z,95.14
2022-10-21T00:05:32.561Z,95.37
2022-10-21T00:07:59.145Z,95.39
2022-10-21T00:10:25.966Z,95.32
2022-10-21T00:12:53.043Z,95.43
2022-10-21T00:15:19.637Z,95.30
2022-10-21T00:17:46.539Z,95.84
2022-10-21T00:20:13.437Z,95.84
2022-10-21T00:22:40.810Z,96.14
2022-10-21T00:25:08.564Z,96.05
2022-10-21T00:27:36.028Z,96.02
2022-10-21T00:30:06.090Z,96.03
2022-10-21T00:32:33.227Z,96.27
2022-10-21T00:34:59.969Z,96.38
2022-10-21T00:37:30.377Z,96.44
2022-10-21T00:39:57.618Z,96.53
2022-10-21T00:42:33.290Z,96.63
2022-10-21T00:45:05.940Z,96.90
2022-10-21T00:47:51.561Z,96.87
2022-10-21T00:50:56.622Z,96.89
2022-10-21T00:53:24.568Z,97.05
2022-10-21T00:55:59.709Z,97.14
2022-10-21T00:58:36.938Z,97.01
2022-10-21T01:01:06.798Z,97.21
2022-10-21T01:03:35.553Z,97.31
2022-10-21T01:06:07.198Z,97.13
2022-10-21T01:08:34.787Z,97.39
2022-10-21T01:11:02.394Z,97.73
2022-10-21T01:13:39.916Z,97.71
2022-10-21T01:16:28.362Z,97.70
2022-10-21T01:19:35.371Z,98.04
2022-10-21T01:22:22.410Z,98.04
2022-10-21T01:24:59.880Z,98.08
2022-10-21T01:27:47.238Z,98.07
2022-10-21T01:30:16.589Z,98.09
2022-10-21T01:33:16.677Z,98.00
2022-10-21T01:36:00.258Z,97.69
2022-10-21T01:38:42.074Z,97.89
2022-10-21T01:41:38.836Z,97.76
2022-10-21T01:44:26.878Z,98.03
2022-10-21T01:47:08.690Z,98.30
2022-10-21T01:49:44.870Z,98.65
2022-10-21T01:52:14.738Z,98.77
2022-10-21T01:54:47.059Z,98.61
2022-10-21T01:57:18.255Z,98.48
2022-10-21T01:59:46.192Z,98.44
2022-10-21T02:02:17.275Z,98.40
2022-10-21T02:04:44.953Z,98.67
2022-10-21T02:07:11.607Z,98.88
2022-10-21T02:09:38.215Z,99.15
2022-10-21T02:12:07.309Z,99.12
2022-10-21T02:14:40.875Z,99.09
2022-10-21T02:17:13.290Z,99.07
2022-10-21T02:19:40.551Z,98.95
2022-10-21T02:22:11.612Z,98.87
2022-10-21T02:24:47.702Z,98.71
2022-10-21T02:27:14.315Z,98.67
2022-10-21T02:29:43.414Z,98.46
2022-10-21T02:32:32.857Z,98.35
2022-10-21T02:35:06.023Z,98.47
2022-10-21T02:37:45.364Z,98.46
2022-10-21T02:40:18.538Z,98.38
2022-10-21T02:42:54.049Z,98.35
2022-10-21T02:45:21.517Z,98.33
2022-10-21T02:47:49.235Z,98.46
2022-10-21T02:50:16.661Z,98.32
2022-10-21T02:52:43.344Z,98.11
2022-10-21T02:55:09.940Z,98.04
2022-10-21T02:57:36.921Z,97.89
2022-10-21T03:00:06.165Z,97.58
2022-10-21T03:02:33.074Z,97.37
2022-10-21T03:04:59.906Z,97.40
2022-10-21T03:07:26.460Z,97.06
2022-10-21T03:09:53.118Z,96.71
2022-10-21T03:12:19.754Z,96.33
2022-10-21T03:14:46.210Z,95.78
2022-10-21T03:17:13.608Z,95.57
2022-10-21T03:19:40.162Z,95.39
2022-10-21T03:22:06.877Z,95.31
2022-10-21T03:24:33.594Z,95.03
2022-10-21T03:27:00.265Z,94.85
2022-10-21T03:29:26.755Z,95.06
2022-10-21T03:31:53.475Z,95.09
2022-10-21T03:34:20.101Z,94.94
2022-10-21T03:36:46.904Z,94.65
2022-10-21T03:39:14.392Z,94.84
2022-10-21T03:41:40.995Z,94.64
2022-10-21T03:44:07.889Z,94.50
2022-10-21T03:46:34.450Z,94.58
2022-10-21T03:49:04.910Z,94.80
2022-10-21T03:51:34.240Z,94.96
2022-10-21T03:54:01.073Z,94.94
2022-10-21T03:56:28.196Z,94.82
2022-10-21T03:58:58.545Z,95.04
2022-10-21T04:01:26.036Z,95.23
2022-10-21T04:03:53.195Z,95.11
2022-10-21T04:06:20.433Z,95.36
2022-10-21T04:08:47.605Z,95.35
2022-10-21T04:11:14.314Z,95.50
2022-10-21T04:13:40.993Z,95.38
2022-10-21T04:16:14.755Z,95.40
2022-10-21T04:18:42.138Z,95.56
2022-10-21T04:21:08.997Z,95.42
2022-10-21T04:23:36.520Z,95.62
2022-10-21T04:26:04.482Z,95.58
2022-10-21T04:28:30.974Z,95.59
2022-10-21T04:30:57.545Z,95.78
2022-10-21T04:33:24.318Z,95.72
2022-10-21T04:35:53.691Z,95.89
2022-10-21T04:38:22.024Z,95.86
2022-10-21T04:40:59.675Z,96.11
2022-10-21T04:43:26.937Z,96.23
2022-10-21T04:45:54.443Z,96.53
2022-10-21T04:48:21.771Z,96.51
2022-10-21T04:50:50.206Z,96.24
2022-10-21T04:53:17.215Z,96.54
2022-10-21T04:55:44.291Z,96.67
2022-10-21T04:58:11.003Z,96.68
2022-10-21T05:00:37.612Z,96.58
2022-10-21T05:03:25.457Z,96.35
2022-10-21T05:05:52.655Z,96.23
2022-10-21T05:08:20.717Z,96.09
2022-10-21T05:10:48.090Z,95.67
2022-10-21T05:13:15.244Z,95.67
2022-10-21T05:15:41.868Z,95.48
2022-10-21T05:18:11.336Z,95.42
2022-10-21T05:20:37.903Z,95.44
2022-10-21T05:23:04.405Z,95.37
2022-10-21T05:25:34.148Z,95.31
2022-10-21T05:28:01.329Z,95.13
2022-10-21T05:30:27.852Z,95.21
2022-10-21T05:32:54.514Z,95.08
2022-10-21T05:35:21.105Z,94.97
2022-10-21T05:37:47.680Z,94.95
2022-10-21T05:40:14.237Z,94.96
2022-10-21T05:42:41.212Z,94.81
2022-10-21T05:45:08.893Z,94.73
2022-10-21T05:47:35.369Z,94.52
2022-10-21T05:50:02.135Z,94.42
2022-10-21T05:52:28.936Z,94.39
2022-10-21T05:54:55.879Z,93.83
2022-10-21T05:57:22.730Z,93.30
2022-10-21T05:59:49.287Z,92.69
2022-10-21T06:02:16.209Z,92.09
2022-10-21T06:04:43.016Z,91.84
2022-10-21T06:07:10.068Z,91.64
2022-10-21T06:09:37.498Z,91.26
2022-10-21T06:12:04.220Z,91.31
2022-10-21T06:14:31.030Z,91.21
2022-10-21T06:16:57.755Z,91.03
2022-10-21T06:19:24.612Z,90.94
2022-10-21T06:21:51.230Z,90.57
2022-10-21T06:24:17.835Z,91.16
2022-10-21T06:26:44.556Z,91.48
2022-10-21T06:29:15.437Z,91.06
2022-10-21T06:31:44.879Z,90.86
2022-10-21T06:34:11.724Z,91.06
2022-10-21T06:36:38.440Z,90.99
2022-10-21T06:39:07.114Z,90.80
2022-10-21T06:41:34.087Z,90.42
2022-10-21T06:44:01.184Z,90.09
2022-10-21T06:46:27.748Z,89.94
2022-10-21T06:48:54.357Z,89.77
2022-10-21T06:51:23.474Z,89.22
2022-10-21T06:53:58.691Z,89.04
2022-10-21T06:56:27.065Z,88.51
2022-10-21T06:58:57.625Z,88.06
2022-10-21T07:01:34.458Z,87.21
2022-10-21T07:04:03.961Z,85.87
2022-10-21T07:06:30.768Z,85.27
2022-10-21T07:08:58.846Z,84.31
2022-10-21T07:11:28.363Z,83.54
2022-10-21T07:13:55.774Z,82.47
2022-10-21T07:16:24.163Z,82.24
2022-10-21T07:18:52.799Z,81.52
2022-10-21T07:21:23.114Z,81.46
2022-10-21T07:23:52.515Z,81.50
2022-10-21T07:26:21.035Z,80.97
2022-10-21T07:28:48.628Z,80.86
2022-10-21T07:31:17.475Z,79.90
2022-10-21T07:33:44.452Z,79.55
2022-10-21T07:36:14.675Z,78.86
2022-10-21T07:38:46.043Z,77.92
2022-10-21T07:41:18.998Z,76.69
2022-10-21T07:43:47.066Z,76.22
2022-10-21T07:46:14.530Z,76.37
2022-10-21T07:48:41.169Z,75.55
2022-10-21T07:51:11.739Z,74.63
2022-10-21T07:53:45.372Z,74.45
2022-10-21T07:56:16.175Z,74.13
2022-10-21T07:58:45.827Z,73.93
2022-10-21T08:01:13.949Z,74.66
2022-10-21T08:03:40.810Z,75.28
2022-10-21T08:06:10.575Z,76.00
2022-10-21T08:08:38.711Z,76.63
2022-10-21T08:11:08.993Z,76.99
2022-10-21T08:13:40.951Z,76.76
2022-10-21T08:16:07.943Z,76.59
2022-10-21T08:18:34.571Z,76.63
2022-10-21T08:21:04.648Z,76.50
2022-10-21T08:23:31.567Z,76.67
2022-10-21T08:26:01.039Z,76.74
2022-10-21T08:28:33.179Z,76.57
2022-10-21T08:31:08.730Z,76.67
2022-10-21T08:33:36.509Z,76.25
2022-10-21T08:36:08.745Z,74.87
2022-10-21T08:38:35.908Z,74.08
2022-10-21T08:41:17.919Z,73.88
2022-10-21T08:43:44.625Z,74.13
2022-10-21T08:46:16.915Z,74.34
2022-10-21T08:48:56.049Z,74.20
2022-10-21T08:51:28.399Z,74.24
2022-10-21T08:54:00.535Z,74.02
2022-10-21T08:56:30.153Z,73.43
2022-10-21T08:58:57.195Z,73.40
2022-10-21T09:01:26.588Z,73.14
2022-10-21T09:04:16.445Z,72.27
2022-10-21T09:07:11.744Z,73.16
2022-10-21T09:10:09.094Z,73.79
2022-10-21T09:12:51.915Z,73.43
2022-10-21T09:15:30.596Z,72.27
2022-10-21T09:18:36.583Z,72.36
2022-10-21T09:21:27.670Z,72.44
2022-10-21T09:23:57.218Z,72.25
2022-10-21T09:26:35.514Z,71.73
2022-10-21T09:29:13.070Z,70.93
2022-10-21T09:31:39.735Z,69.35
2022-10-21T09:34:32.977Z,67.44
2022-10-21T09:37:03.151Z,66.35
2022-10-21T09:39:38.337Z,65.89
2022-10-21T09:42:11.499Z,65.36
2022-10-21T09:44:45.793Z,64.84
2022-10-21T09:47:21.480Z,64.13
2022-10-21T09:50:13.528Z,63.71
2022-10-21T09:52:46.689Z,64.57
2022-10-21T09:55:15.072Z,63.75
2022-10-21T09:57:53.917Z,61.59
2022-10-21T10:00:21.109Z,61.48
2022-10-21T10:02:48.745Z,61.61
2022-10-21T10:05:48.905Z,60.40
2022-10-21T10:08:40.493Z,57.97
2022-10-21T10:11:10.085Z,56.06
2022-10-21T10:13:43.690Z,54.35
2022-10-21T10:16:22.500Z,54.87
2022-10-21T10:18:52.252Z,55.91
2022-10-21T10:21:21.431Z,56.38
2022-10-21T10:23:49.418Z,57.64
2022-10-21T10:26:41.940Z,56.80
2022-10-21T10:29:14.494Z,55.24
2022-10-21T10:31:50.975Z,55.45
2022-10-21T10:34:22.655Z,55.67
2022-10-21T10:36:58.501Z,55.79
2022-10-21T10:39:31.496Z,55.23
2022-10-21T10:41:58.626Z,53.77
2022-10-21T10:44:39.075Z,50.49
2022-10-21T10:47:08.699Z,47.60
2022-10-21T10:49:39.166Z,45.94
2022-10-21T10:52:11.509Z,45.47
2022-10-21T10:54:40.285Z,45.58
2022-10-21T10:57:18.190Z,43.19
2022-10-21T10:59:51.832Z,42.50
2022-10-21T11:02:35.046Z,41.65
2022-10-21T11:05:10.849Z,42.91
2022-10-21T11:07:37.606Z,46.27
2022-10-21T11:10:13.244Z,45.40
2022-10-21T11:12:39.762Z,44.09
2022-10-21T11:15:12.923Z,44.05
2022-10-21T11:17:43.697Z,44.24
2022-10-21T11:20:27.559Z,45.57
2022-10-21T11:23:32.515Z,49.74
2022-10-21T11:26:15.808Z,50.39
2022-10-21T11:29:14.536Z,46.98
2022-10-21T11:32:19.743Z,42.58
2022-10-21T11:35:04.972Z,43.73
2022-10-21T11:37:46.915Z,47.29
2022-10-21T11:40:30.374Z,48.89
2022-10-21T11:43:11.589Z,47.47
2022-10-21T11:46:00.460Z,47.20
2022-10-21T11:48:32.050Z,44.72
2022-10-21T11:51:25.987Z,43.57
2022-10-21T11:54:29.927Z,43.36
2022-10-21T11:56:59.391Z,42.90
2022-10-21T11:59:37.965Z,42.38
2022-10-21T12:02:25.324Z,41.53
2022-10-21T12:05:19.465Z,43.30
2022-10-21T12:07:58.078Z,43.58
2022-10-21T12:10:36.957Z,42.61
2022-10-21T12:13:27.628Z,44.07
2022-10-21T12:16:05.735Z,47.37
2022-10-21T12:18:37.031Z,50.31
2022-10-21T12:21:03.845Z,52.04
2022-10-21T12:23:31.265Z,54.49
2022-10-21T12:26:14.728Z,55.95
2022-10-21T12:29:03.077Z,56.63
2022-10-21T12:32:03.650Z,58.38
2022-10-21T12:34:31.403Z,59.11
2022-10-21T12:36:58.303Z,58.85
2022-10-21T12:39:34.304Z,59.83
2022-10-21T12:42:27.835Z,59.79
2022-10-21T12:44:54.816Z,60.28
2022-10-21T12:47:45.016Z,60.47
2022-10-21T12:50:17.615Z,60.58
2022-10-21T12:52:49.639Z,60.50
2022-10-21T12:55:22.834Z,60.75
2022-10-21T12:58:02.357Z,61.39
2022-10-21T13:00:29.619Z,61.74
2022-10-21T13:03:02.292Z,62.22
2022-10-21T13:05:38.174Z,62.44
2022-10-21T13:08:22.285Z,62.84
2022-10-21T13:11:04.365Z,63.31
2022-10-21T13:13:41.614Z,63.53
2022-10-21T13:16:20.361Z,63.60
2022-10-21T13:18:51.900Z,64.21
2022-10-21T13:21:28.858Z,64.52
2022-10-21T13:24:15.259Z,65.00
2022-10-21T13:26:55.583Z,65.24
2022-10-21T13:29:27.795Z,65.35
2022-10-21T13:32:20.734Z,65.70
2022-10-21T13:34:50.652Z,65.94
2022-10-21T13:37:35.447Z,65.98
2022-10-21T13:40:07.278Z,65.87
2022-10-21T13:42:41.274Z,65.98
2022-10-21T13:45:32.682Z,65.56
2022-10-21T13:48:20.564Z,66.05
2022-10-21T13:50:49.338Z,66.41
2022-10-21T13:53:37.576Z,66.83
2022-10-21T13:56:07.625Z,67.23
2022-10-21T13:58:39.087Z,66.98
2022-10-21T14:01:39.105Z,67.27
2022-10-21T14:04:14.969Z,67.56
2022-10-21T14:07:04.486Z,67.33
2022-10-21T14:09:40.181Z,67.32
2022-10-21T14:12:17.244Z,67.44
2022-10-21T14:14:44.172Z,67.56
2022-10-21T14:17:23.731Z,67.31
2022-10-21T14:20:15.650Z,67.38
2022-10-21T14:22:49.661Z,68.14
2022-10-21T14:25:18.305Z,68.23
2022-10-21T14:27:47.203Z,68.55
2022-10-21T14:30:23.308Z,68.87
2022-10-21T14:32:51.558Z,68.87
2022-10-21T14:35:18.332Z,69.15
2022-10-21T14:37:46.327Z,69.14
2022-10-21T14:40:41.054Z,69.63
2022-10-21T14:43:32.554Z,69.66
2022-10-21T14:45:59.477Z,69.82
2022-10-21T14:48:30.855Z,69.91
2022-10-21T14:51:00.881Z,69.90
2022-10-21T14:53:37.161Z,69.74
2022-10-21T14:56:06.448Z,70.09
2022-10-21T14:58:37.663Z,70.46
2022-10-21T15:01:17.758Z,70.74
2022-10-21T15:03:47.652Z,71.05
2022-10-21T15:06:16.177Z,71.15
2022-10-21T15:09:07.440Z,70.84
2022-10-21T15:11:38.400Z,70.85
2022-10-21T15:14:14.511Z,71.13
2022-10-21T15:16:59.532Z,71.39
2022-10-21T15:19:43.590Z,71.43
2022-10-21T15:22:33.472Z,71.55
2022-10-21T15:25:08.680Z,71.46
2022-10-21T15:27:42.421Z,71.27
2022-10-21T15:30:12.444Z,71.09
2022-10-21T15:32:39.235Z,70.99
2022-10-21T15:35:13.327Z,71.22
2022-10-21T15:37:40.597Z,70.77
2022-10-21T15:40:08.785Z,70.61
2022-10-21T15:42:35.770Z,70.15
2022-10-21T15:45:02.641Z,70.15
2022-10-21T15:47:29.450Z,70.27
2022-10-21T15:49:56.238Z,70.25
2022-10-21T15:52:22.968Z,70.20
2022-10-21T15:54:49.915Z,69.91
2022-10-21T15:57:21.561Z,70.15
2022-10-21T15:59:48.899Z,70.38
2022-10-21T16:02:22.103Z,70.27
2022-10-21T16:04:52.456Z,70.33
2022-10-21T16:07:34.005Z,70.36
2022-10-21T16:10:03.088Z,70.41
2022-10-21T16:12:30.590Z,70.59
2022-10-21T16:14:57.175Z,70.66
2022-10-21T16:17:28.044Z,70.72
2022-10-21T16:19:54.920Z,70.85
2022-10-21T16:22:22.156Z,70.95
2022-10-21T16:24:49.038Z,71.29
2022-10-21T16:27:26.582Z,71.12
2022-10-21T16:29:58.244Z,71.32
2022-10-21T16:32:24.853Z,71.41
2022-10-21T16:34:51.515Z,71.71
2022-10-21T16:37:25.119Z,71.41
2022-10-21T16:39:52.432Z,71.62
2022-10-21T16:42:19.114Z,71.72
2022-10-21T16:44:46.343Z,71.69
2022-10-21T16:47:18.908Z,71.70
2022-10-21T16:49:47.888Z,71.99
2022-10-21T16:52:15.900Z,72.35
2022-10-21T16:54:43.419Z,72.32
2022-10-21T16:57:12.184Z,72.42
2022-10-21T16:59:38.839Z,72.56
2022-10-21T17:02:15.093Z,72.76
2022-10-21T17:04:43.190Z,72.94
2022-10-21T17:07:10.905Z,73.36
2022-10-21T17:09:37.586Z,73.69
2022-10-21T17:12:04.828Z,73.71
2022-10-21T17:14:31.590Z,73.70
2022-10-21T17:16:58.297Z,73.87
2022-10-21T17:19:24.986Z,73.97
2022-10-21T17:21:51.635Z,74.06
2022-10-21T17:24:18.286Z,74.01
2022-10-21T17:26:45.370Z,73.95
2022-10-21T17:29:12.549Z,73.78
2022-10-21T17:31:42.245Z,73.74
2022-10-21T17:34:24.055Z,73.87
2022-10-21T17:36:50.675Z,74.17
2022-10-21T17:39:17.257Z,74.41
2022-10-21T17:41:43.846Z,74.42
2022-10-21T17:44:14.014Z,74.80
2022-10-21T17:46:40.686Z,75.29
2022-10-21T17:49:08.829Z,75.60
2022-10-21T17:51:35.545Z,75.53
2022-10-21T17:54:02.215Z,75.67
2022-10-21T17:56:28.870Z,75.78
2022-10-21T17:59:00.745Z,75.88
2022-10-21T18:01:27.486Z,76.05
2022-10-21T18:03:54.210Z,76.28
2022-10-21T18:06:20.944Z,76.57
2022-10-21T18:08:47.994Z,76.55
2022-10-21T18:11:17.394Z,76.70
2022-10-21T18:13:44.849Z,76.88
2022-10-21T18:16:14.654Z,77.02
2022-10-21T18:21:20.858Z,77.41
2022-10-21T18:23:50.481Z,77.84
2022-10-21T18:26:26.555Z,77.85
2022-10-21T18:28:59.602Z,77.76
2022-10-21T18:31:29.446Z,78.18
2022-10-21T18:33:57.686Z,78.52
2022-10-21T18:36:27.336Z,78.67
2022-10-21T18:38:54.241Z,78.73
2022-10-21T18:41:21.645Z,78.99
2022-10-21T18:43:51.018Z,79.21
2022-10-21T18:46:18.979Z,79.35
2022-10-21T18:48:46.160Z,79.51
2022-10-21T18:51:15.408Z,79.67
2022-10-21T18:53:42.826Z,79.80
2022-10-21T18:56:15.239Z,80.02
2022-10-21T18:58:43.447Z,80.07
2022-10-21T19:01:11.335Z,80.10
2022-10-21T19:03:38.604Z,80.31
2022-10-21T19:06:38.428Z,80.58
2022-10-21T19:09:25.860Z,81.48
2022-10-21T19:11:53.315Z,81.52
2022-10-21T19:14:19.936Z,81.66
2022-10-21T19:16:48.438Z,81.78
2022-10-21T19:19:16.763Z,81.69
2022-10-21T19:21:43.561Z,81.91
2022-10-21T19:24:10.431Z,82.12
2022-10-21T19:26:39.949Z,82.32
2022-10-21T19:29:13.920Z,82.52
2022-10-21T19:31:41.529Z,82.40
2022-10-21T19:34:12.664Z,82.45
2022-10-21T19:36:39.491Z,82.48
2022-10-21T19:39:06.701Z,82.45
2022-10-21T19:41:33.622Z,82.44
2022-10-21T19:44:00.431Z,82.28
2022-10-21T19:46:29.874Z,82.14
2022-10-21T19:48:57.588Z,81.93
2022-10-21T19:51:25.461Z,81.97
2022-10-21T19:53:53.402Z,82.17
2022-10-21T19:56:25.535Z,82.11
2022-10-21T19:58:55.018Z,81.90
2022-10-21T20:01:25.161Z,81.53
2022-10-21T20:03:54.720Z,81.23
2022-10-21T20:06:27.132Z,81.10
2022-10-21T20:08:56.359Z,80.66
2022-10-21T20:11:24.517Z,80.44
2022-10-21T20:13:51.899Z,79.86
2022-10-21T20:16:27.919Z,79.70
2022-10-21T20:18:55.841Z,79.48
2022-10-21T20:21:23.987Z,79.23
2022-10-21T20:23:53.834Z,79.03
2022-10-21T20:26:20.625Z,79.12
2022-10-21T20:28:47.522Z,78.82
2022-10-21T20:31:15.134Z,78.90
2022-10-21T20:33:47.322Z,78.54
2022-10-21T20:36:18.740Z,78.34
2022-10-21T20:38:47.025Z,78.20
2022-10-21T20:41:18.577Z,78.16
2022-10-21T20:43:49.552Z,78.37
2022-10-21T20:46:17.776Z,78.02
2022-10-21T20:48:47.786Z,77.88
2022-10-21T20:51:24.334Z,77.80
2022-10-21T20:53:53.915Z,77.76
2022-10-21T20:56:21.543Z,77.94
2022-10-21T20:58:48.517Z,78.28
2022-10-21T21:01:21.728Z,78.58
2022-10-21T21:03:50.299Z,79.39
2022-10-21T21:06:20.568Z,80.18
2022-10-21T21:08:58.398Z,80.92
2022-10-21T21:11:46.409Z,82.28
2022-10-21T21:14:13.566Z,83.35
2022-10-21T21:16:40.333Z,84.98
2022-10-21T21:19:08.315Z,85.87
2022-10-21T21:21:36.565Z,86.72
2022-10-21T21:24:03.993Z,87.69
2022-10-21T21:26:34.265Z,88.13
2022-10-21T21:29:18.196Z,88.72
2022-10-21T21:31:45.246Z,88.82
2022-10-21T21:34:14.500Z,89.34
2022-10-21T21:36:43.275Z,89.48
2022-10-21T21:39:11.019Z,89.67
2022-10-21T21:41:37.815Z,89.87
2022-10-21T21:44:05.386Z,89.89
2022-10-21T21:46:32.169Z,89.87
2022-10-21T21:49:05.169Z,89.72
2022-10-21T21:51:35.685Z,89.73
2022-10-21T21:54:04.723Z,90.02
2022-10-21T21:56:31.352Z,90.21
2022-10-21T21:58:58.355Z,90.07
2022-10-21T22:01:27.176Z,90.22
2022-10-21T22:03:54.611Z,90.26
2022-10-21T22:08:51.870Z,91.13
2022-10-21T22:11:22.613Z,91.47
2022-10-21T22:13:49.683Z,91.86
2022-10-21T22:16:17.196Z,92.02
2022-10-21T22:18:43.980Z,92.11
2022-10-21T22:21:14.327Z,92.21
2022-10-21T22:23:41.688Z,92.08
2022-10-21T22:26:10.618Z,92.24
2022-10-21T22:28:37.416Z,92.56
2022-10-21T22:31:06.995Z,92.55
2022-10-21T22:33:34.119Z,92.76
2022-10-21T22:36:01.739Z,93.06
2022-10-21T22:38:30.892Z,93.01
2022-10-21T22:41:00.545Z,93.12
2022-10-21T22:43:28.294Z,93.17
2022-10-21T22:46:05.418Z,93.20
2022-10-21T22:48:42.399Z,93.46
2022-10-21T22:51:09.114Z,93.86
2022-10-21T22:53:36.270Z,94.03
2022-10-21T22:56:03.294Z,94.43
2022-10-21T22:58:30.412Z,94.41
2022-10-21T23:00:57.282Z,94.33
2022-10-21T23:03:24.609Z,94.51
2022-10-21T23:05:51.188Z,94.90
2022-10-21T23:08:18.865Z,95.20
2022-10-21T23:10:48.618Z,95.45
2022-10-21T23:13:16.152Z,95.96
2022-10-21T23:15:43.765Z,96.29
2022-10-21T23:18:10.713Z,96.63
2022-10-21T23:20:37.333Z,97.03
2022-10-21T23:23:04.645Z,97.21
2022-10-21T23:25:31.695Z,97.42
2022-10-21T23:27:58.428Z,97.48
2022-10-21T23:30:25.196Z,97.79
2022-10-21T23:32:51.871Z,98.21
2022-10-21T23:35:19.606Z,98.65
2022-10-21T23:37:46.516Z,99.04
2022-10-21T23:40:13.322Z,99.31
2022-10-21T23:42:42.729Z,99.71
2022-10-21T23:45:10.725Z,99.86
2022-10-21T23:47:39.186Z,100.00
2022-10-21T23:50:07.954Z,100.00
2022-10-21T23:52:35.140Z,100.00
2022-10-21T23:55:01.752Z,100.00
2022-10-21T23:57:28.535Z,100.00
2022-10-21T23:59:55.437Z,100.00
